sensor_id;sensor_type;location;lat;lon;timestamp;P1;durP1;ratioP1;P2;durP2;ratioP2
78927;SDS011;68322;22.726;113.540;2023-10-08T00:01:18;5.90;;;3.13;;
78927;SDS011;68322;22.726;113.540;2023-10-08T00:03:47;4.72;;;3.22;;
78927;SDS011;68322;22.726;113.540;2023-10-08T00:06:14;5.43;;;3.17;;
78927;SDS011;68322;22.726;113.540;2023-10-08T00:08:41;5.22;;;3.30;;
78927;SDS011;68322;22.726;113.540;2023-10-08T00:11:08;5.55;;;3.25;;
78927;SDS011;68322;22.726;113.540;2023-10-08T00:13:38;6.13;;;3.35;;
78927;SDS011;68322;22.726;113.540;2023-10-08T00:16:08;7.32;;;3.58;;
78927;SDS011;68322;22.726;113.540;2023-10-08T00:18:35;4.57;;;3.30;;
78927;SDS011;68322;22.726;113.540;2023-10-08T00:21:03;8.25;;;3.45;;
78927;SDS011;68322;22.726;113.540;2023-10-08T00:23:36;8.45;;;3.63;;
78927;SDS011;68322;22.726;113.540;2023-10-08T00:26:10;6.55;;;3.80;;
78927;SDS011;68322;22.726;113.540;2023-10-08T00:28:37;6.68;;;3.30;;
78927;SDS011;68322;22.726;113.540;2023-10-08T00:31:07;5.50;;;3.67;;
78927;SDS011;68322;22.726;113.540;2023-10-08T00:33:38;4.80;;;3.65;;
78927;SDS011;68322;22.726;113.540;2023-10-08T00:36:05;4.53;;;3.63;;
78927;SDS011;68322;22.726;113.540;2023-10-08T00:38:50;9.18;;;3.88;;
78927;SDS011;68322;22.726;113.540;2023-10-08T00:41:20;5.72;;;3.92;;
78927;SDS011;68322;22.726;113.540;2023-10-08T00:43:53;4.60;;;3.25;;
78927;SDS011;68322;22.726;113.540;2023-10-08T00:46:26;7.13;;;3.65;;
78927;SDS011;68322;22.726;113.540;2023-10-08T00:48:58;5.53;;;3.95;;
78927;SDS011;68322;22.726;113.540;2023-10-08T00:51:42;4.88;;;3.58;;
78927;SDS011;68322;22.726;113.540;2023-10-08T00:56:42;5.50;;;3.72;;
78927;SDS011;68322;22.726;113.540;2023-10-08T00:59:15;6.13;;;3.95;;
78927;SDS011;68322;22.726;113.540;2023-10-08T01:01:42;7.68;;;4.05;;
78927;SDS011;68322;22.726;113.540;2023-10-08T01:04:17;5.53;;;3.80;;
78927;SDS011;68322;22.726;113.540;2023-10-08T01:06:49;7.25;;;4.20;;
78927;SDS011;68322;22.726;113.540;2023-10-08T01:09:19;6.65;;;4.13;;
78927;SDS011;68322;22.726;113.540;2023-10-08T01:14:38;5.35;;;3.72;;
78927;SDS011;68322;22.726;113.540;2023-10-08T01:17:08;8.48;;;4.07;;
78927;SDS011;68322;22.726;113.540;2023-10-08T01:19:40;6.05;;;4.40;;
78927;SDS011;68322;22.726;113.540;2023-10-08T01:22:09;7.43;;;3.97;;
78927;SDS011;68322;22.726;113.540;2023-10-08T01:24:42;5.93;;;4.00;;
78927;SDS011;68322;22.726;113.540;2023-10-08T01:27:09;6.80;;;4.18;;
78927;SDS011;68322;22.726;113.540;2023-10-08T01:29:38;4.93;;;4.25;;
78927;SDS011;68322;22.726;113.540;2023-10-08T01:32:05;6.50;;;3.88;;
78927;SDS011;68322;22.726;113.540;2023-10-08T01:34:35;6.30;;;4.38;;
78927;SDS011;68322;22.726;113.540;2023-10-08T01:37:02;5.72;;;3.67;;
78927;SDS011;68322;22.726;113.540;2023-10-08T01:39:36;6.95;;;4.05;;
78927;SDS011;68322;22.726;113.540;2023-10-08T01:42:08;5.00;;;3.40;;
78927;SDS011;68322;22.726;113.540;2023-10-08T01:44:49;5.43;;;3.97;;
78927;SDS011;68322;22.726;113.540;2023-10-08T01:47:20;7.40;;;3.60;;
78927;SDS011;68322;22.726;113.540;2023-10-08T01:49:51;4.65;;;3.22;;
78927;SDS011;68322;22.726;113.540;2023-10-08T01:52:26;5.95;;;3.40;;
78927;SDS011;68322;22.726;113.540;2023-10-08T01:54:55;5.15;;;3.28;;
78927;SDS011;68322;22.726;113.540;2023-10-08T01:57:21;4.60;;;3.20;;
78927;SDS011;68322;22.726;113.540;2023-10-08T01:59:48;10.27;;;4.20;;
78927;SDS011;68322;22.726;113.540;2023-10-08T02:02:15;6.53;;;4.03;;
78927;SDS011;68322;22.726;113.540;2023-10-08T02:04:42;5.00;;;3.40;;
78927;SDS011;68322;22.726;113.540;2023-10-08T02:07:09;7.38;;;3.80;;
78927;SDS011;68322;22.726;113.540;2023-10-08T02:09:39;6.15;;;3.20;;
78927;SDS011;68322;22.726;113.540;2023-10-08T02:12:06;5.18;;;3.78;;
78927;SDS011;68322;22.726;113.540;2023-10-08T02:14:33;6.05;;;3.17;;
78927;SDS011;68322;22.726;113.540;2023-10-08T02:17:01;5.60;;;2.85;;
78927;SDS011;68322;22.726;113.540;2023-10-08T02:19:33;5.95;;;3.10;;
78927;SDS011;68322;22.726;113.540;2023-10-08T02:22:02;5.88;;;3.30;;
78927;SDS011;68322;22.726;113.540;2023-10-08T02:24:35;6.68;;;3.28;;
78927;SDS011;68322;22.726;113.540;2023-10-08T02:27:02;5.18;;;3.17;;
78927;SDS011;68322;22.726;113.540;2023-10-08T02:29:29;5.60;;;3.20;;
78927;SDS011;68322;22.726;113.540;2023-10-08T02:31:57;5.43;;;3.28;;
78927;SDS011;68322;22.726;113.540;2023-10-08T02:34:24;7.43;;;3.55;;
78927;SDS011;68322;22.726;113.540;2023-10-08T02:36:52;4.70;;;3.10;;
78927;SDS011;68322;22.726;113.540;2023-10-08T02:39:20;8.38;;;3.53;;
78927;SDS011;68322;22.726;113.540;2023-10-08T02:41:51;4.20;;;2.92;;
78927;SDS011;68322;22.726;113.540;2023-10-08T02:44:18;5.35;;;2.85;;
78927;SDS011;68322;22.726;113.540;2023-10-08T02:46:47;7.97;;;3.22;;
78927;SDS011;68322;22.726;113.540;2023-10-08T02:49:14;6.45;;;2.85;;
78927;SDS011;68322;22.726;113.540;2023-10-08T02:51:54;5.57;;;2.85;;
78927;SDS011;68322;22.726;113.540;2023-10-08T02:54:21;4.57;;;2.65;;
78927;SDS011;68322;22.726;113.540;2023-10-08T02:56:56;6.03;;;2.78;;
78927;SDS011;68322;22.726;113.540;2023-10-08T02:59:29;5.20;;;2.80;;
78927;SDS011;68322;22.726;113.540;2023-10-08T03:02:06;5.13;;;2.92;;
78927;SDS011;68322;22.726;113.540;2023-10-08T03:04:42;7.45;;;3.22;;
78927;SDS011;68322;22.726;113.540;2023-10-08T03:07:15;3.97;;;2.60;;
78927;SDS011;68322;22.726;113.540;2023-10-08T03:09:57;6.63;;;2.72;;
78927;SDS011;68322;22.726;113.540;2023-10-08T03:12:32;5.15;;;2.70;;
78927;SDS011;68322;22.726;113.540;2023-10-08T03:14:59;5.93;;;3.22;;
78927;SDS011;68322;22.726;113.540;2023-10-08T03:17:27;6.28;;;3.10;;
78927;SDS011;68322;22.726;113.540;2023-10-08T03:22:44;5.80;;;2.30;;
78927;SDS011;68322;22.726;113.540;2023-10-08T03:25:12;2.63;;;2.00;;
78927;SDS011;68322;22.726;113.540;2023-10-08T03:27:43;7.07;;;2.33;;
78927;SDS011;68322;22.726;113.540;2023-10-08T03:30:10;4.82;;;2.67;;
78927;SDS011;68322;22.726;113.540;2023-10-08T03:32:40;4.53;;;2.75;;
78927;SDS011;68322;22.726;113.540;2023-10-08T03:35:09;4.93;;;2.47;;
78927;SDS011;68322;22.726;113.540;2023-10-08T03:37:37;3.72;;;2.67;;
78927;SDS011;68322;22.726;113.540;2023-10-08T03:40:11;4.72;;;2.50;;
78927;SDS011;68322;22.726;113.540;2023-10-08T03:42:55;4.07;;;2.40;;
78927;SDS011;68322;22.726;113.540;2023-10-08T03:45:22;4.78;;;2.67;;
78927;SDS011;68322;22.726;113.540;2023-10-08T03:48:15;5.43;;;2.63;;
78927;SDS011;68322;22.726;113.540;2023-10-08T03:50:42;5.47;;;2.53;;
78927;SDS011;68322;22.726;113.540;2023-10-08T03:53:10;6.30;;;3.58;;
78927;SDS011;68322;22.726;113.540;2023-10-08T03:55:40;6.38;;;2.30;;
78927;SDS011;68322;22.726;113.540;2023-10-08T03:58:07;3.63;;;2.38;;
78927;SDS011;68322;22.726;113.540;2023-10-08T04:00:53;4.43;;;2.65;;
78927;SDS011;68322;22.726;113.540;2023-10-08T04:03:34;4.55;;;2.20;;
78927;SDS011;68322;22.726;113.540;2023-10-08T04:06:30;4.07;;;2.25;;
78927;SDS011;68322;22.726;113.540;2023-10-08T04:09:00;7.75;;;2.10;;
78927;SDS011;68322;22.726;113.540;2023-10-08T04:11:43;2.97;;;1.60;;
78927;SDS011;68322;22.726;113.540;2023-10-08T04:14:17;3.50;;;1.67;;
78927;SDS011;68322;22.726;113.540;2023-10-08T04:16:45;2.78;;;1.77;;
78927;SDS011;68322;22.726;113.540;2023-10-08T04:19:12;3.20;;;1.83;;
78927;SDS011;68322;22.726;113.540;2023-10-08T04:21:43;3.60;;;1.80;;
78927;SDS011;68322;22.726;113.540;2023-10-08T04:24:11;6.38;;;2.70;;
78927;SDS011;68322;22.726;113.540;2023-10-08T04:26:40;1.90;;;1.17;;
78927;SDS011;68322;22.726;113.540;2023-10-08T04:29:08;4.65;;;1.60;;
78927;SDS011;68322;22.726;113.540;2023-10-08T04:31:35;5.75;;;1.98;;
78927;SDS011;68322;22.726;113.540;2023-10-08T04:34:09;6.93;;;2.50;;
78927;SDS011;68322;22.726;113.540;2023-10-08T04:36:43;3.67;;;1.80;;
78927;SDS011;68322;22.726;113.540;2023-10-08T04:39:28;3.78;;;1.60;;
78927;SDS011;68322;22.726;113.540;2023-10-08T04:42:01;4.20;;;1.80;;
78927;SDS011;68322;22.726;113.540;2023-10-08T04:44:38;2.85;;;1.77;;
78927;SDS011;68322;22.726;113.540;2023-10-08T04:47:05;2.47;;;1.23;;
78927;SDS011;68322;22.726;113.540;2023-10-08T04:49:52;3.53;;;1.50;;
78927;SDS011;68322;22.726;113.540;2023-10-08T04:52:19;6.13;;;1.70;;
78927;SDS011;68322;22.726;113.540;2023-10-08T04:54:50;3.00;;;1.58;;
78927;SDS011;68322;22.726;113.540;2023-10-08T04:57:20;3.45;;;1.55;;
78927;SDS011;68322;22.726;113.540;2023-10-08T04:59:51;3.95;;;1.80;;
78927;SDS011;68322;22.726;113.540;2023-10-08T05:02:23;4.38;;;1.90;;
78927;SDS011;68322;22.726;113.540;2023-10-08T05:04:52;2.85;;;1.15;;
78927;SDS011;68322;22.726;113.540;2023-10-08T05:07:37;2.53;;;1.45;;
78927;SDS011;68322;22.726;113.540;2023-10-08T05:10:24;3.95;;;1.60;;
78927;SDS011;68322;22.726;113.540;2023-10-08T05:12:51;2.47;;;1.40;;
78927;SDS011;68322;22.726;113.540;2023-10-08T05:15:27;4.80;;;1.60;;
78927;SDS011;68322;22.726;113.540;2023-10-08T05:18:23;3.28;;;1.30;;
78927;SDS011;68322;22.726;113.540;2023-10-08T05:21:03;2.97;;;1.30;;
78927;SDS011;68322;22.726;113.540;2023-10-08T05:23:50;5.18;;;1.65;;
78927;SDS011;68322;22.726;113.540;2023-10-08T05:26:38;5.93;;;1.73;;
78927;SDS011;68322;22.726;113.540;2023-10-08T05:29:14;2.88;;;1.30;;
78927;SDS011;68322;22.726;113.540;2023-10-08T05:32:00;2.80;;;1.00;;
78927;SDS011;68322;22.726;113.540;2023-10-08T05:34:45;2.30;;;1.52;;
78927;SDS011;68322;22.726;113.540;2023-10-08T05:37:37;2.60;;;1.10;;
78927;SDS011;68322;22.726;113.540;2023-10-08T05:40:08;3.35;;;1.35;;
78927;SDS011;68322;22.726;113.540;2023-10-08T05:42:58;3.22;;;1.60;;
78927;SDS011;68322;22.726;113.540;2023-10-08T05:48:18;2.45;;;1.40;;
78927;SDS011;68322;22.726;113.540;2023-10-08T05:53:38;2.55;;;1.40;;
78927;SDS011;68322;22.726;113.540;2023-10-08T05:56:14;6.10;;;1.50;;
78927;SDS011;68322;22.726;113.540;2023-10-08T05:58:54;6.57;;;1.73;;
78927;SDS011;68322;22.726;113.540;2023-10-08T06:01:40;2.05;;;1.10;;
78927;SDS011;68322;22.726;113.540;2023-10-08T06:04:07;2.88;;;1.50;;
78927;SDS011;68322;22.726;113.540;2023-10-08T06:06:57;2.90;;;1.20;;
78927;SDS011;68322;22.726;113.540;2023-10-08T06:09:38;2.70;;;0.93;;
78927;SDS011;68322;22.726;113.540;2023-10-08T06:12:06;3.53;;;1.30;;
78927;SDS011;68322;22.726;113.540;2023-10-08T06:14:36;3.35;;;1.50;;
78927;SDS011;68322;22.726;113.540;2023-10-08T06:17:32;3.35;;;1.10;;
78927;SDS011;68322;22.726;113.540;2023-10-08T06:20:33;2.00;;;0.95;;
78927;SDS011;68322;22.726;113.540;2023-10-08T06:23:01;2.10;;;1.40;;
78927;SDS011;68322;22.726;113.540;2023-10-08T06:25:33;2.25;;;0.77;;
78927;SDS011;68322;22.726;113.540;2023-10-08T06:28:18;3.35;;;1.45;;
78927;SDS011;68322;22.726;113.540;2023-10-08T06:30:47;1.73;;;1.00;;
78927;SDS011;68322;22.726;113.540;2023-10-08T06:33:14;2.72;;;1.20;;
78927;SDS011;68322;22.726;113.540;2023-10-08T06:35:44;2.42;;;0.90;;
78927;SDS011;68322;22.726;113.540;2023-10-08T06:38:22;5.53;;;1.35;;
78927;SDS011;68322;22.726;113.540;2023-10-08T06:40:49;3.13;;;1.10;;
78927;SDS011;68322;22.726;113.540;2023-10-08T06:43:36;3.03;;;1.40;;
78927;SDS011;68322;22.726;113.540;2023-10-08T06:46:03;2.63;;;1.27;;
78927;SDS011;68322;22.726;113.540;2023-10-08T06:48:33;2.13;;;1.20;;
78927;SDS011;68322;22.726;113.540;2023-10-08T06:51:00;3.28;;;1.45;;
78927;SDS011;68322;22.726;113.540;2023-10-08T06:53:33;2.58;;;1.40;;
78927;SDS011;68322;22.726;113.540;2023-10-08T06:56:04;4.50;;;1.73;;
78927;SDS011;68322;22.726;113.540;2023-10-08T06:58:31;2.72;;;1.60;;
78927;SDS011;68322;22.726;113.540;2023-10-08T07:00:58;3.97;;;1.45;;
78927;SDS011;68322;22.726;113.540;2023-10-08T07:03:30;4.50;;;2.55;;
78927;SDS011;68322;22.726;113.540;2023-10-08T07:05:57;6.63;;;3.63;;
78927;SDS011;68322;22.726;113.540;2023-10-08T07:08:29;5.97;;;3.30;;
78927;SDS011;68322;22.726;113.540;2023-10-08T07:11:18;6.47;;;3.90;;
78927;SDS011;68322;22.726;113.540;2023-10-08T07:13:45;12.35;;;6.57;;
78927;SDS011;68322;22.726;113.540;2023-10-08T07:16:12;7.15;;;3.78;;
78927;SDS011;68322;22.726;113.540;2023-10-08T07:18:43;10.30;;;2.85;;
78927;SDS011;68322;22.726;113.540;2023-10-08T07:21:20;10.15;;;2.72;;
78927;SDS011;68322;22.726;113.540;2023-10-08T07:24:16;3.47;;;1.58;;
78927;SDS011;68322;22.726;113.540;2023-10-08T07:26:47;5.22;;;1.95;;
78927;SDS011;68322;22.726;113.540;2023-10-08T07:29:16;3.70;;;1.85;;
78927;SDS011;68322;22.726;113.540;2023-10-08T07:31:47;2.85;;;1.52;;
78927;SDS011;68322;22.726;113.540;2023-10-08T07:34:18;5.75;;;1.80;;
78927;SDS011;68322;22.726;113.540;2023-10-08T07:36:50;3.95;;;1.80;;
78927;SDS011;68322;22.726;113.540;2023-10-08T07:39:17;3.58;;;1.63;;
78927;SDS011;68322;22.726;113.540;2023-10-08T07:41:53;4.47;;;2.13;;
78927;SDS011;68322;22.726;113.540;2023-10-08T07:44:21;3.75;;;1.77;;
78927;SDS011;68322;22.726;113.540;2023-10-08T07:46:48;3.10;;;2.00;;
78927;SDS011;68322;22.726;113.540;2023-10-08T07:49:17;3.40;;;1.90;;
78927;SDS011;68322;22.726;113.540;2023-10-08T07:51:43;5.28;;;1.90;;
78927;SDS011;68322;22.726;113.540;2023-10-08T07:54:20;4.85;;;2.08;;
78927;SDS011;68322;22.726;113.540;2023-10-08T07:56:48;3.33;;;1.98;;
78927;SDS011;68322;22.726;113.540;2023-10-08T07:59:22;5.43;;;2.15;;
78927;SDS011;68322;22.726;113.540;2023-10-08T08:01:51;6.20;;;2.10;;
78927;SDS011;68322;22.726;113.540;2023-10-08T08:04:19;5.10;;;2.38;;
78927;SDS011;68322;22.726;113.540;2023-10-08T08:06:49;5.32;;;2.22;;
78927;SDS011;68322;22.726;113.540;2023-10-08T08:09:17;11.90;;;2.83;;
78927;SDS011;68322;22.726;113.540;2023-10-08T08:11:46;4.28;;;2.50;;
78927;SDS011;68322;22.726;113.540;2023-10-08T08:14:14;3.83;;;2.40;;
78927;SDS011;68322;22.726;113.540;2023-10-08T08:16:50;7.38;;;2.45;;
78927;SDS011;68322;22.726;113.540;2023-10-08T08:19:17;3.83;;;2.30;;
78927;SDS011;68322;22.726;113.540;2023-10-08T08:21:50;4.93;;;2.83;;
78927;SDS011;68322;22.726;113.540;2023-10-08T08:24:18;4.07;;;2.45;;
78927;SDS011;68322;22.726;113.540;2023-10-08T08:27:11;5.32;;;2.35;;
78927;SDS011;68322;22.726;113.540;2023-10-08T08:29:50;13.13;;;3.65;;
78927;SDS011;68322;22.726;113.540;2023-10-08T08:32:23;10.45;;;2.80;;
78927;SDS011;68322;22.726;113.540;2023-10-08T08:34:50;4.68;;;2.30;;
78927;SDS011;68322;22.726;113.540;2023-10-08T08:37:19;5.10;;;2.28;;
78927;SDS011;68322;22.726;113.540;2023-10-08T08:39:51;4.57;;;2.88;;
78927;SDS011;68322;22.726;113.540;2023-10-08T08:42:20;5.03;;;2.42;;
78927;SDS011;68322;22.726;113.540;2023-10-08T08:44:52;4.93;;;2.67;;
78927;SDS011;68322;22.726;113.540;2023-10-08T08:47:21;3.53;;;2.67;;
78927;SDS011;68322;22.726;113.540;2023-10-08T08:49:50;6.18;;;2.35;;
78927;SDS011;68322;22.726;113.540;2023-10-08T08:52:20;5.80;;;2.60;;
78927;SDS011;68322;22.726;113.540;2023-10-08T08:54:48;5.18;;;3.00;;
78927;SDS011;68322;22.726;113.540;2023-10-08T08:57:16;2.83;;;1.95;;
78927;SDS011;68322;22.726;113.540;2023-10-08T08:59:51;4.65;;;2.40;;
78927;SDS011;68322;22.726;113.540;2023-10-08T09:02:19;4.13;;;2.20;;
78927;SDS011;68322;22.726;113.540;2023-10-08T09:05:06;4.18;;;2.53;;
78927;SDS011;68322;22.726;113.540;2023-10-08T09:08:00;4.78;;;2.65;;
78927;SDS011;68322;22.726;113.540;2023-10-08T09:10:31;4.45;;;2.30;;
78927;SDS011;68322;22.726;113.540;2023-10-08T09:13:05;3.45;;;2.58;;
78927;SDS011;68322;22.726;113.540;2023-10-08T09:15:34;8.00;;;4.03;;
78927;SDS011;68322;22.726;113.540;2023-10-08T09:18:04;19.77;;;8.73;;
78927;SDS011;68322;22.726;113.540;2023-10-08T09:20:35;17.27;;;7.25;;
78927;SDS011;68322;22.726;113.540;2023-10-08T09:23:08;8.25;;;5.10;;
78927;SDS011;68322;22.726;113.540;2023-10-08T09:25:39;4.68;;;3.33;;
78927;SDS011;68322;22.726;113.540;2023-10-08T09:28:06;5.10;;;2.38;;
78927;SDS011;68322;22.726;113.540;2023-10-08T09:30:36;3.28;;;1.98;;
78927;SDS011;68322;22.726;113.540;2023-10-08T09:33:08;4.55;;;2.80;;
78927;SDS011;68322;22.726;113.540;2023-10-08T09:35:36;4.00;;;2.35;;
78927;SDS011;68322;22.726;113.540;2023-10-08T09:38:03;5.03;;;2.50;;
78927;SDS011;68322;22.726;113.540;2023-10-08T09:40:30;4.38;;;2.30;;
78927;SDS011;68322;22.726;113.540;2023-10-08T09:42:57;3.40;;;2.20;;
78927;SDS011;68322;22.726;113.540;2023-10-08T09:45:25;5.85;;;2.58;;
78927;SDS011;68322;22.726;113.540;2023-10-08T09:47:54;5.15;;;2.75;;
78927;SDS011;68322;22.726;113.540;2023-10-08T09:50:23;7.30;;;2.75;;
78927;SDS011;68322;22.726;113.540;2023-10-08T09:55:25;5.20;;;2.53;;
78927;SDS011;68322;22.726;113.540;2023-10-08T09:57:55;3.63;;;2.35;;
78927;SDS011;68322;22.726;113.540;2023-10-08T10:00:41;6.68;;;2.97;;
78927;SDS011;68322;22.726;113.540;2023-10-08T10:03:10;5.00;;;2.80;;
78927;SDS011;68322;22.726;113.540;2023-10-08T10:05:37;5.28;;;3.08;;
78927;SDS011;68322;22.726;113.540;2023-10-08T10:08:05;7.70;;;2.83;;
78927;SDS011;68322;22.726;113.540;2023-10-08T10:10:35;5.13;;;3.42;;
78927;SDS011;68322;22.726;113.540;2023-10-08T10:13:12;4.93;;;2.65;;
78927;SDS011;68322;22.726;113.540;2023-10-08T10:15:41;4.47;;;2.60;;
78927;SDS011;68322;22.726;113.540;2023-10-08T10:20:39;4.15;;;2.45;;
78927;SDS011;68322;22.726;113.540;2023-10-08T10:25:51;4.72;;;2.80;;
78927;SDS011;68322;22.726;113.540;2023-10-08T10:30:47;7.18;;;3.42;;
78927;SDS011;68322;22.726;113.540;2023-10-08T10:33:14;3.95;;;2.63;;
78927;SDS011;68322;22.726;113.540;2023-10-08T10:35:41;3.88;;;2.72;;
78927;SDS011;68322;22.726;113.540;2023-10-08T10:38:09;3.63;;;2.47;;
78927;SDS011;68322;22.726;113.540;2023-10-08T10:40:39;4.57;;;2.45;;
78927;SDS011;68322;22.726;113.540;2023-10-08T10:43:06;5.30;;;2.10;;
78927;SDS011;68322;22.726;113.540;2023-10-08T10:45:34;5.88;;;2.70;;
78927;SDS011;68322;22.726;113.540;2023-10-08T10:48:09;9.15;;;2.85;;
78927;SDS011;68322;22.726;113.540;2023-10-08T10:50:40;5.70;;;2.40;;
78927;SDS011;68322;22.726;113.540;2023-10-08T10:53:25;3.80;;;2.30;;
78927;SDS011;68322;22.726;113.540;2023-10-08T10:55:53;4.00;;;2.45;;
78927;SDS011;68322;22.726;113.540;2023-10-08T10:58:31;4.35;;;2.17;;
78927;SDS011;68322;22.726;113.540;2023-10-08T11:01:05;5.05;;;2.42;;
78927;SDS011;68322;22.726;113.540;2023-10-08T11:03:50;4.43;;;2.67;;
78927;SDS011;68322;22.726;113.540;2023-10-08T11:08:49;3.63;;;2.30;;
78927;SDS011;68322;22.726;113.540;2023-10-08T11:11:19;6.82;;;2.92;;
78927;SDS011;68322;22.726;113.540;2023-10-08T11:14:07;3.50;;;2.55;;
78927;SDS011;68322;22.726;113.540;2023-10-08T11:16:54;6.28;;;2.35;;
78927;SDS011;68322;22.726;113.540;2023-10-08T11:19:21;5.18;;;2.50;;
78927;SDS011;68322;22.726;113.540;2023-10-08T11:21:51;6.78;;;2.70;;
78927;SDS011;68322;22.726;113.540;2023-10-08T11:24:28;3.40;;;2.50;;
78927;SDS011;68322;22.726;113.540;2023-10-08T11:26:59;6.88;;;2.53;;
78927;SDS011;68322;22.726;113.540;2023-10-08T11:29:45;7.20;;;2.67;;
78927;SDS011;68322;22.726;113.540;2023-10-08T11:32:15;4.38;;;2.30;;
78927;SDS011;68322;22.726;113.540;2023-10-08T11:34:54;4.68;;;2.92;;
78927;SDS011;68322;22.726;113.540;2023-10-08T11:37:28;3.63;;;2.08;;
78927;SDS011;68322;22.726;113.540;2023-10-08T11:39:55;5.63;;;2.55;;
78927;SDS011;68322;22.726;113.540;2023-10-08T11:42:33;5.07;;;2.47;;
78927;SDS011;68322;22.726;113.540;2023-10-08T11:45:00;4.13;;;2.58;;
78927;SDS011;68322;22.726;113.540;2023-10-08T11:47:46;6.05;;;2.58;;
78927;SDS011;68322;22.726;113.540;2023-10-08T11:50:27;4.78;;;2.47;;
78927;SDS011;68322;22.726;113.540;2023-10-08T11:52:57;5.28;;;2.40;;
78927;SDS011;68322;22.726;113.540;2023-10-08T11:55:28;6.43;;;2.90;;
78927;SDS011;68322;22.726;113.540;2023-10-08T11:57:55;4.07;;;2.38;;
78927;SDS011;68322;22.726;113.540;2023-10-08T12:00:22;3.75;;;2.47;;
78927;SDS011;68322;22.726;113.540;2023-10-08T12:02:51;4.22;;;2.30;;
78927;SDS011;68322;22.726;113.540;2023-10-08T12:05:21;4.10;;;2.25;;
78927;SDS011;68322;22.726;113.540;2023-10-08T12:07:53;3.78;;;2.63;;
78927;SDS011;68322;22.726;113.540;2023-10-08T12:10:23;5.25;;;2.72;;
78927;SDS011;68322;22.726;113.540;2023-10-08T12:12:53;7.68;;;2.55;;
78927;SDS011;68322;22.726;113.540;2023-10-08T12:15:20;6.60;;;2.33;;
78927;SDS011;68322;22.726;113.540;2023-10-08T12:17:50;4.35;;;2.45;;
78927;SDS011;68322;22.726;113.540;2023-10-08T12:20:35;4.72;;;2.53;;
78927;SDS011;68322;22.726;113.540;2023-10-08T12:23:12;5.13;;;2.80;;
78927;SDS011;68322;22.726;113.540;2023-10-08T12:25:54;4.22;;;2.67;;
78927;SDS011;68322;22.726;113.540;2023-10-08T12:28:25;4.32;;;2.53;;
78927;SDS011;68322;22.726;113.540;2023-10-08T12:30:53;4.38;;;2.75;;
78927;SDS011;68322;22.726;113.540;2023-10-08T12:33:21;4.07;;;2.70;;
78927;SDS011;68322;22.726;113.540;2023-10-08T12:35:51;4.88;;;2.90;;
78927;SDS011;68322;22.726;113.540;2023-10-08T12:38:24;4.07;;;2.65;;
78927;SDS011;68322;22.726;113.540;2023-10-08T12:40:53;6.45;;;2.95;;
78927;SDS011;68322;22.726;113.540;2023-10-08T12:43:20;6.70;;;3.00;;
78927;SDS011;68322;22.726;113.540;2023-10-08T12:45:48;5.28;;;3.10;;
78927;SDS011;68322;22.726;113.540;2023-10-08T12:48:23;7.47;;;2.88;;
78927;SDS011;68322;22.726;113.540;2023-10-08T12:50:51;7.40;;;3.17;;
78927;SDS011;68322;22.726;113.540;2023-10-08T12:53:28;9.23;;;3.58;;
78927;SDS011;68322;22.726;113.540;2023-10-08T12:56:07;6.50;;;3.13;;
78927;SDS011;68322;22.726;113.540;2023-10-08T12:58:40;6.20;;;2.92;;
78927;SDS011;68322;22.726;113.540;2023-10-08T13:01:14;4.78;;;3.38;;
78927;SDS011;68322;22.726;113.540;2023-10-08T13:03:47;8.18;;;2.85;;
78927;SDS011;68322;22.726;113.540;2023-10-08T13:06:15;5.90;;;3.15;;
78927;SDS011;68322;22.726;113.540;2023-10-08T13:08:48;4.43;;;3.05;;
78927;SDS011;68322;22.726;113.540;2023-10-08T13:11:21;5.25;;;2.65;;
78927;SDS011;68322;22.726;113.540;2023-10-08T13:13:49;8.68;;;3.05;;
78927;SDS011;68322;22.726;113.540;2023-10-08T13:16:17;4.85;;;2.83;;
78927;SDS011;68322;22.726;113.540;2023-10-08T13:18:47;4.78;;;2.95;;
78927;SDS011;68322;22.726;113.540;2023-10-08T13:21:14;3.67;;;2.65;;
78927;SDS011;68322;22.726;113.540;2023-10-08T13:23:41;5.38;;;2.42;;
78927;SDS011;68322;22.726;113.540;2023-10-08T13:26:08;4.50;;;2.63;;
78927;SDS011;68322;22.726;113.540;2023-10-08T13:28:35;4.72;;;2.80;;
78927;SDS011;68322;22.726;113.540;2023-10-08T13:31:03;4.30;;;2.25;;
78927;SDS011;68322;22.726;113.540;2023-10-08T13:33:40;6.78;;;2.78;;
78927;SDS011;68322;22.726;113.540;2023-10-08T13:36:15;4.28;;;2.40;;
78927;SDS011;68322;22.726;113.540;2023-10-08T13:38:42;5.22;;;2.45;;
78927;SDS011;68322;22.726;113.540;2023-10-08T13:41:11;4.75;;;2.00;;
78927;SDS011;68322;22.726;113.540;2023-10-08T13:43:42;4.30;;;2.50;;
78927;SDS011;68322;22.726;113.540;2023-10-08T13:46:15;4.07;;;2.58;;
78927;SDS011;68322;22.726;113.540;2023-10-08T13:48:45;4.93;;;2.20;;
78927;SDS011;68322;22.726;113.540;2023-10-08T13:51:16;3.75;;;2.25;;
78927;SDS011;68322;22.726;113.540;2023-10-08T13:53:50;4.00;;;2.47;;
78927;SDS011;68322;22.726;113.540;2023-10-08T13:56:25;4.15;;;2.15;;
78927;SDS011;68322;22.726;113.540;2023-10-08T13:58:55;4.40;;;2.60;;
78927;SDS011;68322;22.726;113.540;2023-10-08T14:01:31;3.03;;;2.20;;
78927;SDS011;68322;22.726;113.540;2023-10-08T14:04:01;4.05;;;2.20;;
78927;SDS011;68322;22.726;113.540;2023-10-08T14:06:36;3.40;;;2.15;;
78927;SDS011;68322;22.726;113.540;2023-10-08T14:09:05;6.63;;;2.63;;
78927;SDS011;68322;22.726;113.540;2023-10-08T14:11:37;3.53;;;2.00;;
78927;SDS011;68322;22.726;113.540;2023-10-08T14:14:05;3.10;;;2.25;;
78927;SDS011;68322;22.726;113.540;2023-10-08T14:16:37;3.35;;;2.00;;
78927;SDS011;68322;22.726;113.540;2023-10-08T14:19:10;4.97;;;2.20;;
78927;SDS011;68322;22.726;113.540;2023-10-08T14:21:58;6.00;;;2.20;;
78927;SDS011;68322;22.726;113.540;2023-10-08T14:24:30;3.30;;;1.90;;
78927;SDS011;68322;22.726;113.540;2023-10-08T14:27:01;3.17;;;1.73;;
78927;SDS011;68322;22.726;113.540;2023-10-08T14:29:40;4.43;;;2.40;;
78927;SDS011;68322;22.726;113.540;2023-10-08T14:32:12;5.90;;;2.25;;
78927;SDS011;68322;22.726;113.540;2023-10-08T14:34:42;3.70;;;2.13;;
78927;SDS011;68322;22.726;113.540;2023-10-08T14:37:09;5.25;;;2.83;;
78927;SDS011;68322;22.726;113.540;2023-10-08T14:39:54;3.50;;;2.42;;
78927;SDS011;68322;22.726;113.540;2023-10-08T14:42:40;5.30;;;2.53;;
78927;SDS011;68322;22.726;113.540;2023-10-08T14:45:26;6.72;;;2.50;;
78927;SDS011;68322;22.726;113.540;2023-10-08T14:47:56;5.30;;;2.67;;
78927;SDS011;68322;22.726;113.540;2023-10-08T14:50:24;2.72;;;1.95;;
78927;SDS011;68322;22.726;113.540;2023-10-08T14:52:57;4.72;;;2.20;;
78927;SDS011;68322;22.726;113.540;2023-10-08T14:55:30;5.28;;;2.50;;
78927;SDS011;68322;22.726;113.540;2023-10-08T14:58:00;3.30;;;2.20;;
78927;SDS011;68322;22.726;113.540;2023-10-08T15:00:33;3.70;;;2.33;;
78927;SDS011;68322;22.726;113.540;2023-10-08T15:03:04;4.68;;;2.45;;
78927;SDS011;68322;22.726;113.540;2023-10-08T15:05:31;4.55;;;2.15;;
78927;SDS011;68322;22.726;113.540;2023-10-08T15:08:02;3.58;;;2.38;;
78927;SDS011;68322;22.726;113.540;2023-10-08T15:10:35;4.35;;;2.30;;
78927;SDS011;68322;22.726;113.540;2023-10-08T15:13:02;3.45;;;2.25;;
78927;SDS011;68322;22.726;113.540;2023-10-08T15:15:31;4.97;;;2.30;;
78927;SDS011;68322;22.726;113.540;2023-10-08T15:18:00;2.83;;;2.00;;